Time;durP1;ratioP1;P1;durP2;ratioP2;P2;SDS_P1;SDS_P2;PMS_P1;PMS_P2;Temp;Humidity;BMP_temperature;BMP_pressure;BME280_temperature;BME280_humidity;BME280_pressure;Samples;Min_cycle;Max_cycle;Signal;HPM_P1;HPM_P2
2024/01/20 00:01:26;;;;;;;98.03;35.93;;;;;;;-1.93;100.00;102600.66;5041861;28;20029;-64
2024/01/20 00:03:52;;;;;;;84.67;32.13;;;;;;;-1.90;100.00;102600.56;5031236;28;20128;-64
2024/01/20 00:06:17;;;;;;;92.40;34.40;;;;;;;-1.90;100.00;102602.31;5033078;28;20061;-63
2024/01/20 00:08:43;;;;;;;93.27;35.20;;;;;;;-1.89;100.00;102610.09;5043692;28;20033;-64
2024/01/20 00:11:08;;;;;;;97.17;34.30;;;;;;;-1.89;100.00;102611.84;5033033;28;20106;-64
2024/01/20 00:13:33;;;;;;;93.67;33.40;;;;;;;-1.88;100.00;102606.59;5051089;28;20073;-64
2024/01/20 00:15:58;;;;;;;95.63;32.67;;;;;;;-1.88;100.00;102603.13;5038455;28;20079;-63
2024/01/20 00:18:24;;;;;;;94.33;35.40;;;;;;;-1.82;100.00;102612.50;5046138;28;20040;-64
2024/01/20 00:20:50;;;;;;;97.63;35.80;;;;;;;-1.82;100.00;102615.09;5044090;28;20052;-64
2024/01/20 00:23:16;;;;;;;93.80;34.00;;;;;;;-1.84;100.00;102614.28;5047265;28;20052;-64
2024/01/20 00:25:41;;;;;;;93.07;33.73;;;;;;;-1.81;100.00;102624.63;5040513;28;20103;-64
2024/01/20 00:28:07;;;;;;;89.47;34.13;;;;;;;-1.82;100.00;102612.50;5043780;28;20034;-64
2024/01/20 00:30:32;;;;;;;95.07;34.50;;;;;;;-1.78;100.00;102609.75;5039826;28;20035;-64
2024/01/20 00:32:58;;;;;;;87.73;31.40;;;;;;;-1.76;100.00;102605.34;5038649;28;20032;-64
2024/01/20 00:35:23;;;;;;;89.53;31.13;;;;;;;-1.75;100.00;102607.03;5043797;28;20029;-64
2024/01/20 00:37:48;;;;;;;96.60;35.73;;;;;;;-1.76;100.00;102602.72;5048225;28;20067;-64
2024/01/20 00:40:14;;;;;;;90.60;33.77;;;;;;;-1.76;100.00;102601.88;5037117;28;20033;-64
2024/01/20 00:42:39;;;;;;;94.40;33.03;;;;;;;-1.76;100.00;102605.34;5042310;28;20409;-64
2024/01/20 00:45:05;;;;;;;80.30;31.53;;;;;;;-1.74;100.00;102611.34;5041477;28;20029;-63
2024/01/20 00:47:31;;;;;;;93.30;33.77;;;;;;;-1.77;100.00;102606.25;5037883;28;20453;-64
2024/01/20 00:49:56;;;;;;;87.17;31.30;;;;;;;-1.73;100.00;102604.41;5040513;28;20673;-63
2024/01/20 00:52:22;;;;;;;84.03;30.67;;;;;;;-1.75;100.00;102604.44;5043501;28;20106;-64
2024/01/20 00:54:47;;;;;;;85.70;31.73;;;;;;;-1.73;100.00;102589.66;5041719;28;20048;-64
2024/01/20 00:57:12;;;;;;;89.67;31.93;;;;;;;-1.76;100.00;102599.28;5043653;28;20037;-64
2024/01/20 00:59:38;;;;;;;78.93;29.97;;;;;;;-1.77;100.00;102594.97;5042297;28;20025;-64
2024/01/20 01:02:04;;;;;;;76.30;29.83;;;;;;;-1.81;100.00;102596.81;5045712;28;20530;-63
2024/01/20 01:04:29;;;;;;;79.60;31.17;;;;;;;-1.81;100.00;102601.19;5036393;28;20112;-63
2024/01/20 01:06:54;;;;;;;71.53;28.40;;;;;;;-1.83;100.00;102605.59;5040406;28;20505;-64
2024/01/20 01:09:20;;;;;;;78.77;28.93;;;;;;;-1.87;100.00;102595.28;5037770;28;20029;-63
2024/01/20 01:11:46;;;;;;;77.97;28.47;;;;;;;-1.82;100.00;102602.94;5048391;28;20029;-64
2024/01/20 01:14:11;;;;;;;82.17;30.10;;;;;;;-1.85;100.00;102608.25;5045727;28;20017;-64
2024/01/20 01:16:37;;;;;;;77.03;29.47;;;;;;;-1.86;100.00;102606.53;5040049;28;20697;-64
2024/01/20 01:19:02;;;;;;;85.67;29.17;;;;;;;-1.88;100.00;102603.97;5041775;28;20144;-63
2024/01/20 01:21:28;;;;;;;66.83;26.73;;;;;;;-1.84;100.00;102599.53;5043586;28;20017;-64
2024/01/20 01:23:53;;;;;;;79.13;29.70;;;;;;;-1.84;100.00;102615.16;5047689;28;20067;-63
2024/01/20 01:26:19;;;;;;;76.80;28.93;;;;;;;-1.84;100.00;102601.28;5045955;28;20040;-64
2024/01/20 01:28:45;;;;;;;74.17;28.73;;;;;;;-1.83;100.00;102602.97;5057125;28;20035;-63
2024/01/20 01:31:11;;;;;;;78.23;28.83;;;;;;;-1.81;100.00;102603.78;5042272;28;20029;-64
2024/01/20 01:33:36;;;;;;;87.93;31.43;;;;;;;-1.82;100.00;102613.34;5036213;28;20029;-63
2024/01/20 01:36:02;;;;;;;71.20;28.63;;;;;;;-1.84;100.00;102609.94;5036612;28;20013;-63
2024/01/20 01:38:27;;;;;;;83.60;30.73;;;;;;;-1.87;100.00;102616.09;5046945;28;21033;-64
2024/01/20 01:40:52;;;;;;;84.30;31.57;;;;;;;-1.88;100.00;102614.41;5038326;28;20481;-63
2024/01/20 01:43:18;;;;;;;81.47;29.00;;;;;;;-1.88;100.00;102608.34;5042718;28;20017;-63
2024/01/20 01:45:43;;;;;;;75.33;29.33;;;;;;;-1.89;100.00;102617.03;5046638;28;20025;-63
2024/01/20 01:48:09;;;;;;;78.20;29.07;;;;;;;-1.90;100.00;102615.34;5049244;28;20025;-64
2024/01/20 01:50:35;;;;;;;79.87;27.47;;;;;;;-1.91;100.00;102624.06;5039060;28;20083;-63
2024/01/20 01:53:00;;;;;;;76.40;28.27;;;;;;;-1.91;100.00;102624.91;5046310;28;20035;-63
2024/01/20 01:55:26;;;;;;;79.63;29.57;;;;;;;-1.93;100.00;102629.31;5044094;28;20025;-63
2024/01/20 01:57:54;;;;;;;83.37;28.83;;;;;;;-1.94;100.00;102640.63;5040777;28;20033;-64
2024/01/20 02:00:20;;;;;;;79.03;28.03;;;;;;;-1.96;100.00;102629.41;5034454;28;20500;-63
2024/01/20 02:02:45;;;;;;;73.60;29.13;;;;;;;-1.95;100.00;102632.84;5036919;28;20029;-64
2024/01/20 02:05:10;;;;;;;70.77;27.47;;;;;;;-1.96;100.00;102636.38;5042833;28;20802;-64
2024/01/20 02:07:37;;;;;;;74.97;28.90;;;;;;;-1.99;100.00;102639.06;5041302;28;20588;-63
2024/01/20 02:10:05;;;;;;;73.53;27.40;;;;;;;-2.00;100.00;102640.81;5042477;28;20151;-63
2024/01/20 02:12:31;;;;;;;78.60;30.53;;;;;;;-2.02;100.00;102642.59;5051643;28;20029;-63
2024/01/20 02:14:58;;;;;;;72.47;27.33;;;;;;;-2.00;100.00;102647.78;5039985;28;20432;-64
2024/01/20 02:17:23;;;;;;;77.47;28.00;;;;;;;-1.98;100.00;102664.19;5041887;28;20029;-63
2024/01/20 02:19:49;;;;;;;80.57;29.87;;;;;;;-1.97;100.00;102658.94;5035679;28;20548;-64
2024/01/20 02:22:15;;;;;;;88.10;29.73;;;;;;;-1.97;100.00;102655.47;5044511;28;20037;-64
2024/01/20 02:24:49;;;;;;;82.70;29.40;;;;;;;-2.00;100.00;102656.44;5051012;28;20116;-64
2024/01/20 02:27:16;;;;;;;74.70;27.43;;;;;;;-2.02;100.00;102657.38;5035065;28;20061;-63
2024/01/20 02:29:41;;;;;;;79.53;28.43;;;;;;;-2.01;100.00;102664.28;5049006;28;20024;-64
2024/01/20 02:32:07;;;;;;;79.00;29.07;;;;;;;-2.04;100.00;102659.16;5040586;28;20553;-64
2024/01/20 02:34:33;;;;;;;77.33;28.63;;;;;;;-2.04;100.00;102659.16;5030752;28;20093;-64
2024/01/20 02:36:58;;;;;;;72.03;27.33;;;;;;;-2.05;100.00;102654.84;5037479;28;20128;-63
2024/01/20 02:39:24;;;;;;;77.10;27.57;;;;;;;-2.08;100.00;102653.19;5039929;28;20025;-63
2024/01/20 02:41:49;;;;;;;66.33;27.30;;;;;;;-2.12;100.00;102648.09;5045115;28;20036;-64
2024/01/20 02:44:14;;;;;;;70.27;27.60;;;;;;;-2.13;100.00;102655.06;5041451;28;20118;-64
2024/01/20 02:46:40;;;;;;;75.00;27.30;;;;;;;-2.14;100.00;102642.94;5043863;28;20473;-64
2024/01/20 02:49:05;;;;;;;66.23;26.33;;;;;;;-2.16;100.00;102646.50;5037550;28;20114;-63
2024/01/20 02:51:30;;;;;;;73.13;26.33;;;;;;;-2.18;100.00;102651.75;5037420;28;20020;-63
2024/01/20 02:53:57;;;;;;;75.23;27.63;;;;;;;-2.26;100.00;102643.31;5042349;28;20483;-63
2024/01/20 02:56:24;;;;;;;73.90;25.87;;;;;;;-2.17;100.00;102650.00;5043103;28;20518;-63
2024/01/20 02:58:49;;;;;;;73.87;28.00;;;;;;;-2.14;100.00;102660.31;5041546;28;20072;-63
2024/01/20 03:01:15;;;;;;;74.67;27.23;;;;;;;-2.13;100.00;102660.28;5039052;28;20548;-64
2024/01/20 03:03:40;;;;;;;66.30;26.43;;;;;;;-2.12;100.00;102659.38;5033600;28;20032;-63
2024/01/20 03:06:06;;;;;;;68.33;25.60;;;;;;;-2.10;100.00;102659.31;5042694;28;20029;-64
2024/01/20 03:08:31;;;;;;;74.03;27.63;;;;;;;-2.11;100.00;102663.69;5043770;28;20900;-64
2024/01/20 03:10:57;;;;;;;66.23;25.87;;;;;;;-2.12;100.00;102661.97;5044980;28;20049;-64
2024/01/20 03:13:22;;;;;;;65.10;25.97;;;;;;;-2.11;100.00;102670.63;5042122;28;20071;-63
2024/01/20 03:15:47;;;;;;;60.70;24.50;;;;;;;-2.08;100.00;102673.16;5036491;28;20026;-63
2024/01/20 03:18:13;;;;;;;64.93;24.97;;;;;;;-2.06;100.00;102685.22;5038512;28;20037;-63
2024/01/20 03:20:38;;;;;;;63.93;25.93;;;;;;;-2.08;100.00;102674.00;5041383;28;20037;-63
2024/01/20 03:23:04;;;;;;;65.37;26.63;;;;;;;-2.07;100.00;102672.25;5040869;28;20021;-63
2024/01/20 03:25:29;;;;;;;65.20;26.43;;;;;;;-2.06;100.00;102673.97;5042390;28;20124;-63
2024/01/20 03:27:54;;;;;;;64.07;25.73;;;;;;;-2.05;100.00;102673.06;5040270;28;20746;-63
2024/01/20 03:30:20;;;;;;;66.23;25.23;;;;;;;-2.04;100.00;102677.38;5040951;28;20044;-63
2024/01/20 03:32:46;;;;;;;67.37;26.00;;;;;;;-2.04;100.00;102677.38;5037448;28;20492;-64
2024/01/20 03:35:12;;;;;;;65.37;25.73;;;;;;;-2.03;100.00;102666.91;5034582;28;20542;-63
2024/01/20 03:37:37;;;;;;;72.33;26.90;;;;;;;-2.02;100.00;102678.19;5044340;28;20442;-63
2024/01/20 03:40:02;;;;;;;70.67;27.20;;;;;;;-2.01;100.00;102683.34;5045210;28;20032;-63
2024/01/20 03:42:28;;;;;;;63.80;25.57;;;;;;;-1.98;100.00;102678.06;5047543;28;20021;-64
2024/01/20 03:44:55;;;;;;;70.40;27.57;;;;;;;-1.98;100.00;102675.47;5038480;28;20060;-64
2024/01/20 03:47:20;;;;;;;69.23;26.30;;;;;;;-1.94;100.00;102687.47;5040719;28;20555;-64
2024/01/20 03:49:45;;;;;;;64.23;25.37;;;;;;;-1.91;100.00;102687.38;5042799;28;20028;-64
2024/01/20 03:52:10;;;;;;;63.70;26.90;;;;;;;-1.91;100.00;102691.75;5051592;28;20586;-63
2024/01/20 03:54:36;;;;;;;62.33;24.73;;;;;;;-1.88;100.00;102686.44;5036223;28;20029;-64
2024/01/20 03:57:01;;;;;;;58.80;23.57;;;;;;;-1.85;100.00;102678.53;5043695;28;20070;-64
2024/01/20 03:59:27;;;;;;;60.53;27.17;;;;;;;-1.85;100.00;102677.69;5034999;28;20752;-64
2024/01/20 04:01:52;;;;;;;62.53;25.27;;;;;;;-1.83;100.00;102673.28;5045456;28;20025;-64
2024/01/20 04:04:18;;;;;;;61.30;24.40;;;;;;;-1.84;100.00;102687.19;5035160;28;20048;-63
2024/01/20 04:06:43;;;;;;;61.50;24.70;;;;;;;-1.83;100.00;102679.34;5040552;28;20040;-64
2024/01/20 04:09:08;;;;;;;65.97;25.13;;;;;;;-1.84;100.00;102680.25;5043506;28;20024;-64
2024/01/20 04:11:33;;;;;;;65.93;26.23;;;;;;;-1.81;100.00;102687.09;5042908;28;20221;-64
2024/01/20 04:13:59;;;;;;;57.60;25.00;;;;;;;-1.80;100.00;102689.66;5044487;28;20459;-64
2024/01/20 04:16:24;;;;;;;60.97;24.60;;;;;;;-1.83;100.00;102681.09;5036941;28;20028;-64
2024/01/20 04:18:49;;;;;;;52.30;21.70;;;;;;;-1.83;100.00;102689.75;5042333;28;20050;-64
2024/01/20 04:21:15;;;;;;;57.40;23.63;;;;;;;-1.87;100.00;102683.78;5033786;28;20029;-64
2024/01/20 04:23:40;;;;;;;60.73;24.80;;;;;;;-1.89;100.00;102685.59;5042138;28;20098;-64
2024/01/20 04:26:05;;;;;;;62.87;24.43;;;;;;;-1.90;100.00;102688.25;5034543;28;20394;-64
2024/01/20 04:28:31;;;;;;;62.07;24.77;;;;;;;-1.94;100.00;102703.09;5050960;28;20035;-64
2024/01/20 04:30:56;;;;;;;62.13;24.83;;;;;;;-1.92;100.00;102705.66;5038963;28;20060;-64
2024/01/20 04:33:22;;;;;;;73.17;27.80;;;;;;;-1.91;100.00;102703.00;5050688;28;20097;-64
2024/01/20 04:35:47;;;;;;;64.30;24.60;;;;;;;-1.91;100.00;102696.94;5038507;28;20584;-64
2024/01/20 04:38:12;;;;;;;62.53;24.10;;;;;;;-1.90;100.00;102703.88;5038896;28;20040;-64
2024/01/20 04:40:38;;;;;;;61.53;24.43;;;;;;;-1.92;100.00;102700.44;5031091;28;20021;-64
2024/01/20 04:43:03;;;;;;;59.10;22.40;;;;;;;-1.88;100.00;102704.66;5039338;28;20060;-63
2024/01/20 04:45:29;;;;;;;59.43;23.97;;;;;;;-1.90;100.00;102704.72;5039119;28;20043;-64
2024/01/20 04:47:54;;;;;;;59.47;26.00;;;;;;;-1.92;100.00;102710.88;5036414;28;20067;-63
2024/01/20 04:50:20;;;;;;;61.27;23.43;;;;;;;-1.92;100.00;102711.72;5034561;28;20030;-64
2024/01/20 04:52:45;;;;;;;57.40;22.30;;;;;;;-1.95;100.00;102716.16;5030822;28;20109;-64
2024/01/20 04:55:11;;;;;;;57.83;23.07;;;;;;;-1.93;100.00;102714.38;5038545;28;20025;-64
2024/01/20 04:57:36;;;;;;;65.53;25.67;;;;;;;-1.96;100.00;102714.47;5041719;28;20493;-64
2024/01/20 05:00:02;;;;;;;61.63;24.73;;;;;;;-1.98;100.00;102711.06;5036693;28;20033;-64
2024/01/20 05:02:27;;;;;;;60.97;24.23;;;;;;;-2.01;100.00;102706.78;5043647;28;20141;-64
2024/01/20 05:04:52;;;;;;;60.67;24.00;;;;;;;-2.01;100.00;102711.16;5044971;28;20406;-64
2024/01/20 05:07:18;;;;;;;56.00;22.77;;;;;;;-2.00;100.00;102707.63;5045303;28;20029;-64
2024/01/20 05:09:43;;;;;;;62.70;25.83;;;;;;;-2.03;100.00;102707.69;5047629;28;20191;-64
2024/01/20 05:12:09;;;;;;;65.03;25.43;;;;;;;-2.00;100.00;102723.25;5054083;28;20438;-64
2024/01/20 05:14:34;;;;;;;59.60;24.97;;;;;;;-1.99;100.00;102720.63;5039361;28;20824;-64
2024/01/20 05:16:59;;;;;;;61.23;23.93;;;;;;;-1.99;100.00;102718.00;5040993;28;20121;-64
2024/01/20 05:19:24;;;;;;;61.87;24.67;;;;;;;-1.94;100.00;102723.06;5043170;28;20037;-64
2024/01/20 05:21:50;;;;;;;65.63;24.13;;;;;;;-1.92;100.00;102726.50;5050379;28;20610;-64
2024/01/20 05:24:15;;;;;;;59.63;23.30;;;;;;;-1.92;100.00;102722.13;5051675;28;20061;-65
2024/01/20 05:26:40;;;;;;;64.67;23.73;;;;;;;-1.90;100.00;102733.34;5045657;28;20025;-64
2024/01/20 05:29:06;;;;;;;62.33;23.93;;;;;;;-1.90;100.00;102733.34;5033961;28;20113;-64
2024/01/20 05:31:31;;;;;;;58.60;23.60;;;;;;;-1.90;100.00;102735.97;5040815;28;20541;-64
2024/01/20 05:33:59;;;;;;;61.10;22.80;;;;;;;-1.92;100.00;102729.09;5050443;28;20514;-64
2024/01/20 05:36:24;;;;;;;63.10;25.00;;;;;;;-1.93;100.00;102735.19;5039876;28;20025;-64
2024/01/20 05:38:50;;;;;;;58.63;23.97;;;;;;;-1.95;100.00;102731.78;5047185;28;20052;-64
2024/01/20 05:41:15;;;;;;;60.17;25.33;;;;;;;-1.97;100.00;102737.03;5046909;28;20494;-64
2024/01/20 05:43:40;;;;;;;58.77;23.40;;;;;;;-1.97;100.00;102731.84;5044005;28;20029;-64
2024/01/20 05:46:06;;;;;;;56.53;23.03;;;;;;;-1.98;100.00;102737.94;5046157;28;20025;-64
2024/01/20 05:48:32;;;;;;;60.27;24.10;;;;;;;-2.00;100.00;102744.09;5040735;28;20017;-64
2024/01/20 05:50:58;;;;;;;56.57;22.70;;;;;;;-2.01;100.00;102737.19;5051286;28;20083;-64
2024/01/20 05:53:23;;;;;;;62.53;25.17;;;;;;;-2.04;100.00;102747.63;5038806;28;20043;-64
2024/01/20 05:55:49;;;;;;;54.60;23.20;;;;;;;-2.02;100.00;102748.47;5041075;28;20029;-64
2024/01/20 05:58:14;;;;;;;62.13;23.77;;;;;;;-2.03;100.00;102749.34;5043569;28;20060;-64
2024/01/20 06:00:40;;;;;;;59.00;23.30;;;;;;;-2.06;100.00;102749.44;5038493;28;20757;-64
2024/01/20 06:03:06;;;;;;;62.93;24.10;;;;;;;-2.06;100.00;102749.44;5044066;28;20669;-64
2024/01/20 06:05:31;;;;;;;62.27;23.50;;;;;;;-2.07;100.00;102751.19;5041035;28;20033;-64
2024/01/20 06:07:57;;;;;;;60.13;23.60;;;;;;;-2.06;100.00;102750.28;5039724;28;20083;-64
2024/01/20 06:10:22;;;;;;;60.10;24.87;;;;;;;-2.07;100.00;102752.94;5036158;28;20022;-64
2024/01/20 06:12:48;;;;;;;64.80;25.43;;;;;;;-2.10;100.00;102751.28;5052245;28;20039;-64
2024/01/20 06:15:13;;;;;;;57.07;23.03;;;;;;;-2.08;100.00;102757.28;5048110;28;20029;-64
2024/01/20 06:17:38;;;;;;;59.30;24.20;;;;;;;-2.10;100.00;102759.09;5038768;28;20711;-64
2024/01/20 06:20:05;;;;;;;64.63;25.20;;;;;;;-2.11;100.00;102769.53;5043277;28;20552;-64
2024/01/20 06:22:31;;;;;;;60.30;23.77;;;;;;;-2.11;100.00;102761.72;5037461;28;20142;-64
2024/01/20 06:24:56;;;;;;;67.03;24.73;;;;;;;-2.11;100.00;102766.94;5048155;28;20055;-64
2024/01/20 06:27:22;;;;;;;58.33;22.87;;;;;;;-2.09;100.00;102772.94;5041541;28;20495;-64
2024/01/20 06:29:47;;;;;;;58.37;23.73;;;;;;;-2.09;100.00;102773.81;5041988;28;20737;-64
2024/01/20 06:32:12;;;;;;;60.67;23.47;;;;;;;-2.08;100.00;102772.91;5034209;28;20037;-64
2024/01/20 06:34:39;;;;;;;61.60;24.27;;;;;;;-2.05;100.00;102778.03;5034970;28;20029;-64
2024/01/20 06:37:04;;;;;;;63.83;26.03;;;;;;;-2.04;100.00;102777.13;5035575;28;20124;-64
2024/01/20 06:39:30;;;;;;;61.47;25.80;;;;;;;-2.03;100.00;102777.97;5037829;28;20498;-64
2024/01/20 06:41:55;;;;;;;59.93;23.30;;;;;;;-2.06;100.00;102765.06;5043795;28;20046;-64
2024/01/20 06:44:22;;;;;;;55.90;22.53;;;;;;;-2.00;100.00;102777.94;5047709;28;20029;-64
2024/01/20 06:46:48;;;;;;;60.73;24.50;;;;;;;-2.01;100.00;102781.44;5044468;28;20020;-64
2024/01/20 06:49:13;;;;;;;55.17;23.40;;;;;;;-2.02;100.00;102782.31;5046036;28;20090;-66
2024/01/20 06:51:39;;;;;;;61.03;25.37;;;;;;;-1.99;100.00;102792.66;5035913;28;20031;-66
2024/01/20 06:54:05;;;;;;;59.50;23.33;;;;;;;-1.99;100.00;102788.28;5039093;28;20036;-66
2024/01/20 06:56:31;;;;;;;60.30;24.43;;;;;;;-2.00;100.00;102783.13;5035149;28;20028;-64
2024/01/20 06:58:56;;;;;;;58.40;24.23;;;;;;;-2.00;100.00;102790.94;5042559;28;20021;-64
2024/01/20 07:01:22;;;;;;;58.27;22.80;;;;;;;-2.00;100.00;102798.75;5037288;28;20040;-64
2024/01/20 07:03:48;;;;;;;63.30;24.30;;;;;;;-1.98;100.00;102794.34;5039109;28;20025;-64
2024/01/20 07:06:14;;;;;;;63.17;23.80;;;;;;;-1.96;100.00;102787.34;5032338;28;20064;-64
2024/01/20 07:08:39;;;;;;;59.73;23.23;;;;;;;-1.94;100.00;102794.22;5042695;28;20041;-64
2024/01/20 07:11:11;;;;;;;60.33;24.90;;;;;;;-1.94;100.00;102790.78;5039224;28;20123;-64
2024/01/20 07:13:37;;;;;;;57.70;24.33;;;;;;;-1.93;100.00;102795.09;5038474;28;20726;-64
2024/01/20 07:16:13;;;;;;;57.20;22.67;;;;;;;-1.93;100.00;102779.47;5035759;28;20019;-64
2024/01/20 07:18:39;;;;;;;60.40;23.13;;;;;;;-1.94;100.00;102786.41;5042128;28;20020;-63
2024/01/20 07:21:05;;;;;;;57.43;22.27;;;;;;;-1.92;100.00;102788.97;5043930;28;20651;-63
2024/01/20 07:23:30;;;;;;;56.97;24.87;;;;;;;-1.93;100.00;102788.13;5039104;28;20028;-64
2024/01/20 07:25:56;;;;;;;62.50;25.37;;;;;;;-1.91;100.00;102788.94;5046950;28;20029;-64
2024/01/20 07:28:22;;;;;;;53.93;22.63;;;;;;;-1.92;100.00;102779.41;5041629;28;20142;-64
2024/01/20 07:30:47;;;;;;;55.30;23.90;;;;;;;-1.90;100.00;102793.25;5034672;28;20499;-64
2024/01/20 07:33:12;;;;;;;54.97;23.10;;;;;;;-1.92;100.00;102786.38;5048215;28;20039;-63
2024/01/20 07:35:38;;;;;;;58.20;24.37;;;;;;;-1.94;100.00;102788.16;5032530;28;20040;-64
2024/01/20 07:38:03;;;;;;;52.43;21.03;;;;;;;-1.94;100.00;102786.41;5040086;28;20104;-64
2024/01/20 07:40:29;;;;;;;53.67;22.77;;;;;;;-1.99;100.00;102788.28;5035030;28;20094;-64
2024/01/20 07:42:54;;;;;;;52.77;23.27;;;;;;;-1.97;100.00;102801.28;5044514;28;20396;-64
2024/01/20 07:45:20;;;;;;;54.63;22.93;;;;;;;-1.95;100.00;102804.69;5034680;28;20056;-64
2024/01/20 07:47:48;;;;;;;52.17;23.67;;;;;;;-1.96;100.00;102801.22;5038197;28;20032;-64
2024/01/20 07:50:14;;;;;;;58.90;23.80;;;;;;;-1.98;100.00;102804.78;5035352;28;20042;-64
2024/01/20 07:52:39;;;;;;;57.27;24.53;;;;;;;-1.98;100.00;102807.38;5033003;28;20028;-64
2024/01/20 07:55:05;;;;;;;58.20;24.53;;;;;;;-1.96;100.00;102805.56;5043005;28;20021;-64
2024/01/20 07:57:30;;;;;;;55.37;23.47;;;;;;;-1.94;100.00;102806.38;5039165;28;20200;-64
2024/01/20 07:59:55;;;;;;;56.57;23.50;;;;;;;-1.94;100.00;102816.81;5043526;28;20023;-64
2024/01/20 08:02:21;;;;;;;52.43;24.50;;;;;;;-1.93;100.00;102823.72;5048225;28;20024;-63
2024/01/20 08:04:46;;;;;;;55.10;21.93;;;;;;;-1.95;100.00;102821.16;5040043;28;20021;-63
2024/01/20 08:07:11;;;;;;;57.93;23.70;;;;;;;-1.94;100.00;102816.81;5035605;28;20047;-63
2024/01/20 08:09:37;;;;;;;56.30;24.17;;;;;;;-1.96;100.00;102826.41;5038155;28;20120;-64
2024/01/20 08:12:02;;;;;;;55.97;23.97;;;;;;;-1.98;100.00;102828.19;5044795;28;20058;-64
2024/01/20 08:14:28;;;;;;;58.93;25.27;;;;;;;-2.00;100.00;102830.00;5038203;28;20711;-64
2024/01/20 08:16:53;;;;;;;54.30;23.27;;;;;;;-2.00;100.00;102832.59;5041452;28;20025;-62
2024/01/20 08:19:18;;;;;;;53.00;23.37;;;;;;;-2.00;100.00;102822.19;5038604;28;20032;-61
2024/01/20 08:21:44;;;;;;;55.27;24.33;;;;;;;-2.03;100.00;102828.28;5042584;28;20029;-62
2024/01/20 08:24:09;;;;;;;51.70;22.30;;;;;;;-2.03;100.00;102833.50;5039704;28;20473;-61
2024/01/20 08:26:34;;;;;;;50.00;22.03;;;;;;;-2.01;100.00;102836.94;5034364;28;20820;-61
2024/01/20 08:29:00;;;;;;;53.67;23.17;;;;;;;-2.02;100.00;102839.59;5035373;28;20026;-62
2024/01/20 08:31:25;;;;;;;55.57;23.63;;;;;;;-2.00;100.00;102845.59;5045681;28;20086;-62
2024/01/20 08:33:50;;;;;;;53.00;22.63;;;;;;;-1.99;100.00;102834.31;5037542;28;20032;-62
2024/01/20 08:36:16;;;;;;;55.67;23.70;;;;;;;-1.99;100.00;102837.75;5030095;28;20055;-62
2024/01/20 08:38:41;;;;;;;51.97;23.47;;;;;;;-1.94;100.00;102851.50;5044669;28;20032;-62
2024/01/20 08:41:08;;;;;;;47.33;22.40;;;;;;;-1.91;100.00;102843.59;5041626;28;20075;-62
2024/01/20 08:43:33;;;;;;;49.27;21.40;;;;;;;-1.89;100.00;102846.16;5038599;28;20021;-62
2024/01/20 08:45:59;;;;;;;54.97;23.13;;;;;;;-1.87;100.00;102842.63;5041661;28;20029;-61
2024/01/20 08:48:24;;;;;;;52.47;22.43;;;;;;;-1.85;100.00;102845.19;5048616;28;20906;-62
2024/01/20 08:50:49;;;;;;;52.97;23.63;;;;;;;-1.80;100.00;102850.25;5045077;28;20102;-62
2024/01/20 08:53:15;;;;;;;47.43;22.10;;;;;;;-1.78;100.00;102844.13;5049612;28;20033;-61
2024/01/20 08:55:40;;;;;;;56.60;25.10;;;;;;;-1.78;100.00;102854.53;5036917;28;20112;-62
2024/01/20 08:58:05;;;;;;;56.77;24.77;;;;;;;-1.74;100.00;102860.50;5042074;28;20552;-62
2024/01/20 09:00:31;;;;;;;57.87;25.03;;;;;;;-1.73;100.00;102857.88;5041098;28;20028;-61
2024/01/20 09:02:57;;;;;;;51.73;23.77;;;;;;;-1.71;100.00;102850.88;5032842;28;20047;-62
2024/01/20 09:05:22;;;;;;;52.23;22.80;;;;;;;-1.73;100.00;102847.47;5039462;28;20090;-61
2024/01/20 09:07:47;;;;;;;50.03;22.30;;;;;;;-1.80;100.00;102838.09;5042033;28;20033;-62
2024/01/20 09:10:13;;;;;;;57.63;24.70;;;;;;;-1.74;100.00;102860.50;5043704;28;20044;-62
2024/01/20 09:12:38;;;;;;;54.67;24.07;;;;;;;-1.75;100.00;102867.47;5040473;28;20061;-61
2024/01/20 09:15:04;;;;;;;48.83;21.37;;;;;;;-1.75;100.00;102864.84;5043214;28;20029;-61
2024/01/20 09:17:29;;;;;;;50.60;23.10;;;;;;;-1.81;100.00;102865.03;5040632;28;20063;-62
2024/01/20 09:19:54;;;;;;;48.03;21.07;;;;;;;-1.80;100.00;102865.88;5047814;28;20029;-61
2024/01/20 09:22:20;;;;;;;55.87;25.43;;;;;;;-1.82;100.00;102863.31;5049214;28;20033;-62
2024/01/20 09:24:45;;;;;;;52.00;23.30;;;;;;;-1.79;100.00;102868.44;5044458;28;20478;-62
2024/01/20 09:27:47;;;;;;;54.53;23.00;;;;;;;-1.77;100.00;102871.88;5038236;28;20699;-61
2024/01/20 09:30:13;;;;;;;53.70;23.43;;;;;;;-1.73;100.00;102868.31;5040245;28;20040;-62
2024/01/20 09:32:38;;;;;;;57.00;24.47;;;;;;;-1.70;100.00;102873.44;5043155;28;20688;-62
2024/01/20 09:35:04;;;;;;;51.63;22.87;;;;;;;-1.68;100.00;102870.78;5040633;28;20039;-62
2024/01/20 09:37:29;;;;;;;57.70;25.10;;;;;;;-1.66;100.00;102871.59;5035548;28;20025;-62
2024/01/20 09:39:55;;;;;;;53.47;24.33;;;;;;;-1.65;100.00;102873.31;5030149;28;20044;-61
2024/01/20 09:42:22;;;;;;;58.17;25.17;;;;;;;-1.63;100.00;102874.97;5039613;28;20076;-62
2024/01/20 09:44:48;;;;;;;49.13;23.03;;;;;;;-1.63;100.00;102880.16;5041158;28;20075;-61
2024/01/20 09:47:14;;;;;;;51.77;25.83;;;;;;;-1.64;100.00;102885.44;5041078;28;20039;-62
2024/01/20 09:49:39;;;;;;;49.87;23.57;;;;;;;-1.61;100.00;102885.34;5049522;28;20036;-62
2024/01/20 09:52:12;;;;;;;52.13;23.10;;;;;;;-1.57;100.00;102894.78;5040921;28;20031;-61
2024/01/20 09:54:56;;;;;;;54.87;24.17;;;;;;;-1.53;100.00;102899.00;5045802;28;20056;-62
2024/01/20 09:57:23;;;;;;;49.07;23.13;;;;;;;-1.52;100.00;102895.50;5044122;28;20040;-62
2024/01/20 09:59:49;;;;;;;53.60;24.00;;;;;;;-1.53;100.00;102885.97;5043266;28;20029;-62
2024/01/20 10:02:18;;;;;;;51.73;24.43;;;;;;;-1.62;100.00;102887.09;5039254;28;20040;-62
2024/01/20 10:04:46;;;;;;;52.17;24.33;;;;;;;-1.56;100.00;102896.47;5037234;28;20025;-62
2024/01/20 10:07:29;;;;;;;48.15;22.40;;;;;;;-1.59;100.00;102900.03;5038354;28;20032;-62
2024/01/20 10:09:54;;;;;;;53.13;24.43;;;;;;;-1.59;100.00;102897.41;5046246;28;20032;-61
2024/01/20 10:12:20;;;;;;;55.50;25.63;;;;;;;-1.58;100.00;102893.06;5043902;28;20523;-62
2024/01/20 10:14:45;;;;;;;53.07;24.37;;;;;;;-1.57;100.00;102894.78;5046779;28;20062;-62
2024/01/20 10:17:10;;;;;;;53.67;25.07;;;;;;;-1.58;100.00;102885.25;5051067;28;20032;-61
2024/01/20 10:19:38;;;;;;;54.03;23.90;;;;;;;-1.59;100.00;102900.03;5047189;28;20032;-62
2024/01/20 10:22:10;;;;;;;49.77;24.80;;;;;;;-1.62;100.00;102900.13;5045333;28;20121;-62
2024/01/20 10:24:48;;;;;;;56.23;23.33;;;;;;;-1.63;100.00;102910.56;5040062;28;20033;-62
2024/01/20 10:27:23;;;;;;;53.17;24.17;;;;;;;-1.60;100.00;102911.34;5048555;28;20029;-62
2024/01/20 10:29:49;;;;;;;54.00;25.50;;;;;;;-1.57;100.00;102900.84;5051139;28;20574;-62
2024/01/20 10:32:15;;;;;;;49.63;23.33;;;;;;;-1.52;100.00;102902.47;5047568;28;20043;-62
2024/01/20 10:34:41;;;;;;;55.67;25.47;;;;;;;-1.50;100.00;102916.28;5043778;28;20029;-62
2024/01/20 10:43:59;;;;;;;53.33;23.43;;;;;;;-1.49;100.00;102910.19;5036309;28;20035;-62
2024/01/20 10:46:29;;;;;;;47.83;22.47;;;;;;;-1.49;100.00;102899.75;5041985;28;20049;-62
2024/01/20 10:48:59;;;;;;;50.57;23.27;;;;;;;-1.47;100.00;102904.03;5042146;28;20037;-62
2024/01/20 10:51:28;;;;;;;49.90;22.77;;;;;;;-1.45;100.00;102902.25;5047254;28;20033;-62
2024/01/20 10:53:57;;;;;;;51.67;24.50;;;;;;;-1.47;100.00;102909.25;5044052;28;20032;-62
2024/01/20 10:56:25;;;;;;;45.17;22.33;;;;;;;-1.45;100.00;102904.84;5035829;28;20028;-62
2024/01/20 10:59:08;;;;;;;49.10;22.07;;;;;;;-1.37;100.00;102905.50;5033641;28;20391;-62
2024/01/20 11:01:34;;;;;;;48.53;22.93;;;;;;;-1.28;100.00;102907.84;5042023;28;20061;-62
2024/01/20 11:04:01;;;;;;;46.93;22.43;;;;;;;-1.20;100.00;102898.94;5043538;28;20029;-62